createdAt,value
2022-12-20T00:00:54.084Z,14.32
2022-12-20T00:03:21.843Z,14.27
2022-12-20T00:05:49.491Z,14.32
2022-12-20T00:08:17.191Z,14.40
2022-12-20T00:10:45.893Z,14.35
2022-12-20T00:13:13.935Z,14.29
2022-12-20T00:15:41.638Z,14.41
2022-12-20T00:18:10.766Z,14.40
2022-12-20T00:20:38.713Z,14.50
2022-12-20T00:23:06.302Z,14.52
2022-12-20T00:25:33.904Z,14.48
2022-12-20T00:28:03.097Z,14.51
2022-12-20T00:30:30.739Z,14.52
2022-12-20T00:32:58.475Z,14.57
2022-12-20T00:35:27.394Z,14.50
2022-12-20T00:37:55.249Z,14.56
2022-12-20T00:40:22.907Z,14.58
2022-12-20T00:42:50.766Z,14.54
2022-12-20T00:45:18.411Z,14.61
2022-12-20T00:47:46.143Z,14.65
2022-12-20T00:50:13.758Z,14.58
2022-12-20T00:52:42.913Z,14.61
2022-12-20T00:55:10.625Z,14.58
2022-12-20T00:57:38.406Z,14.51
2022-12-20T01:00:07.034Z,14.53
2022-12-20T01:02:35.721Z,14.20
2022-12-20T01:05:03.597Z,14.60
2022-12-20T01:07:31.364Z,14.62
2022-12-20T01:10:00.349Z,14.64
2022-12-20T01:12:28.179Z,14.69
2022-12-20T01:14:56.088Z,14.71
2022-12-20T01:17:25.594Z,14.72
2022-12-20T01:19:53.158Z,14.78
2022-12-20T01:22:21.035Z,14.80
2022-12-20T01:24:48.740Z,14.79
2022-12-20T01:27:17.880Z,14.79
2022-12-20T01:29:45.504Z,14.49
2022-12-20T01:32:13.312Z,14.81
2022-12-20T01:34:40.962Z,14.81
2022-12-20T01:37:08.834Z,14.82
2022-12-20T01:39:36.465Z,14.80
2022-12-20T01:42:04.387Z,14.78
2022-12-20T01:45:00.465Z,14.70
2022-12-20T01:47:28.407Z,14.47
2022-12-20T01:49:56.180Z,14.46
2022-12-20T01:52:27.478Z,14.36
2022-12-20T01:54:56.223Z,14.29
2022-12-20T01:57:25.456Z,14.32
2022-12-20T01:59:54.054Z,14.23
2022-12-20T02:02:23.657Z,14.28
2022-12-20T02:04:51.778Z,14.27
2022-12-20T02:07:20.718Z,14.27
2022-12-20T02:09:48.391Z,14.21
2022-12-20T02:12:16.570Z,14.23
2022-12-20T02:14:51.352Z,14.24
2022-12-20T02:17:22.371Z,14.07
2022-12-20T02:20:12.847Z,13.78
2022-12-20T02:22:47.572Z,14.17
2022-12-20T02:25:29.195Z,13.80
2022-12-20T02:28:01.072Z,13.83
2022-12-20T02:30:32.624Z,14.03
2022-12-20T02:33:01.396Z,13.57
2022-12-20T02:35:31.932Z,13.91
2022-12-20T02:38:00.418Z,13.54
2022-12-20T02:40:29.144Z,13.85
2022-12-20T02:42:58.453Z,13.66
2022-12-20T02:45:26.985Z,13.79
2022-12-20T02:47:56.815Z,13.81
2022-12-20T02:50:26.342Z,13.80
2022-12-20T02:52:53.989Z,13.77
2022-12-20T02:55:22.057Z,13.82
2022-12-20T02:57:57.868Z,13.68
2022-12-20T03:00:27.890Z,13.49
2022-12-20T03:03:14.425Z,13.81
2022-12-20T03:05:45.032Z,13.66
2022-12-20T03:08:12.663Z,13.48
2022-12-20T03:10:40.517Z,13.81
2022-12-20T03:13:08.334Z,13.83
2022-12-20T03:15:37.133Z,13.85
2022-12-20T03:18:06.145Z,13.77
2022-12-20T03:20:33.806Z,13.83
2022-12-20T03:25:36.039Z,13.87
2022-12-20T03:28:04.561Z,13.85
2022-12-20T03:30:32.331Z,13.89
2022-12-20T03:32:59.998Z,13.85
2022-12-20T03:35:29.002Z,13.88
2022-12-20T03:37:56.661Z,13.81
2022-12-20T03:40:25.423Z,13.91
2022-12-20T03:42:53.044Z,13.94
2022-12-20T03:45:20.883Z,13.94
2022-12-20T03:47:48.517Z,13.82
2022-12-20T03:50:16.905Z,13.69
2022-12-20T03:52:45.829Z,13.81
2022-12-20T03:55:13.568Z,13.73
2022-12-20T03:57:42.097Z,13.51
2022-12-20T04:00:12.440Z,13.68
2022-12-20T04:02:40.354Z,13.65
2022-12-20T04:05:08.957Z,13.41
2022-12-20T04:07:36.538Z,13.57
2022-12-20T04:10:07.031Z,13.47
2022-12-20T04:12:34.626Z,13.55
2022-12-20T04:15:02.386Z,13.55
2022-12-20T04:17:29.972Z,13.56
2022-12-20T04:19:57.632Z,13.56
2022-12-20T04:22:25.767Z,13.55
2022-12-20T04:24:53.394Z,13.48
2022-12-20T04:27:22.338Z,13.46
2022-12-20T04:29:49.943Z,13.51
2022-12-20T04:32:18.540Z,13.40
2022-12-20T04:34:46.105Z,13.36
2022-12-20T04:37:14.742Z,13.31
2022-12-20T04:39:44.672Z,13.29
2022-12-20T04:42:12.309Z,13.25
2022-12-20T04:44:41.243Z,13.13
2022-12-20T04:47:10.065Z,13.19
2022-12-20T04:49:37.628Z,13.24
2022-12-20T04:52:19.652Z,13.18
2022-12-20T04:54:47.742Z,13.15
2022-12-20T04:57:18.322Z,13.15
2022-12-20T04:59:47.365Z,13.15
2022-12-20T05:02:15.003Z,13.13
2022-12-20T05:04:43.224Z,13.16
2022-12-20T05:07:10.836Z,13.16
2022-12-20T05:09:38.828Z,13.22
2022-12-20T05:12:06.765Z,13.17
2022-12-20T05:14:34.568Z,13.11
2022-12-20T05:17:03.499Z,13.06
2022-12-20T05:19:31.369Z,13.13
2022-12-20T05:22:16.594Z,13.11
2022-12-20T05:25:01.495Z,13.13
2022-12-20T05:27:29.103Z,13.09
2022-12-20T05:29:56.932Z,13.09
2022-12-20T05:32:25.837Z,13.13
2022-12-20T05:34:53.533Z,13.15
2022-12-20T05:37:21.106Z,13.08
2022-12-20T05:39:48.841Z,13.14
2022-12-20T05:42:16.404Z,13.16
2022-12-20T05:44:44.137Z,13.16
2022-12-20T05:47:11.820Z,13.13
2022-12-20T05:49:40.884Z,13.11
2022-12-20T05:52:08.633Z,13.14
2022-12-20T05:54:36.562Z,13.19
2022-12-20T05:57:04.295Z,13.19
2022-12-20T05:59:32.099Z,13.20
2022-12-20T06:02:00.115Z,13.18
2022-12-20T06:04:28.009Z,13.25
2022-12-20T06:06:57.093Z,13.20
2022-12-20T06:09:24.855Z,13.33
2022-12-20T06:11:52.432Z,13.38
2022-12-20T06:14:20.346Z,13.36
2022-12-20T06:16:48.011Z,13.36
2022-12-20T06:19:21.142Z,13.40
2022-12-20T06:21:49.313Z,13.41
2022-12-20T06:24:18.579Z,13.37
2022-12-20T06:26:48.259Z,13.46
2022-12-20T06:29:17.492Z,13.49
2022-12-20T06:31:45.376Z,13.50
2022-12-20T06:34:12.991Z,13.54
2022-12-20T06:36:40.679Z,13.38
2022-12-20T06:39:09.905Z,13.50
2022-12-20T06:41:41.795Z,12.95
2022-12-20T06:44:09.410Z,13.60
2022-12-20T06:46:37.198Z,13.44
2022-12-20T06:49:04.790Z,13.63
2022-12-20T06:51:32.503Z,13.67
2022-12-20T06:54:00.102Z,13.69
2022-12-20T06:56:27.700Z,13.66
2022-12-20T06:58:56.828Z,13.69
2022-12-20T07:01:24.552Z,13.70
2022-12-20T07:03:52.414Z,13.76
2022-12-20T07:06:20.046Z,13.69
2022-12-20T07:08:48.031Z,13.65
2022-12-20T07:11:15.604Z,13.67
2022-12-20T07:13:43.305Z,13.65
2022-12-20T07:16:12.508Z,13.60
2022-12-20T07:18:40.274Z,13.65
2022-12-20T07:21:07.845Z,13.67
2022-12-20T07:23:35.418Z,13.60
2022-12-20T07:26:04.485Z,13.69
2022-12-20T07:28:32.395Z,13.65
2022-12-20T07:31:01.882Z,13.44
2022-12-20T07:33:30.885Z,13.64
2022-12-20T07:36:02.200Z,13.61
2022-12-20T07:38:30.278Z,13.68
2022-12-20T07:40:58.090Z,13.71
2022-12-20T07:43:25.733Z,13.71
2022-12-20T07:45:56.306Z,13.74
2022-12-20T07:48:24.365Z,13.69
2022-12-20T07:51:02.689Z,13.76
2022-12-20T07:53:30.434Z,13.77
2022-12-20T07:55:58.712Z,13.67
2022-12-20T07:58:27.189Z,13.85
2022-12-20T08:00:55.129Z,13.88
2022-12-20T08:03:24.123Z,13.67
2022-12-20T08:05:54.311Z,13.85
2022-12-20T08:08:22.133Z,13.97
2022-12-20T08:10:49.957Z,13.86
2022-12-20T08:13:17.575Z,13.96
2022-12-20T08:15:45.509Z,14.00
2022-12-20T08:18:13.056Z,14.06
2022-12-20T08:20:40.790Z,14.08
2022-12-20T08:23:09.809Z,14.09
2022-12-20T08:25:41.728Z,14.21
2022-12-20T08:28:09.888Z,14.22
2022-12-20T08:30:37.818Z,14.32
2022-12-20T08:33:05.520Z,14.24
2022-12-20T08:35:33.278Z,14.31
2022-12-20T08:38:00.938Z,14.28
2022-12-20T08:40:30.053Z,14.29
2022-12-20T08:42:57.931Z,14.34
2022-12-20T08:45:26.608Z,14.38
2022-12-20T08:47:54.835Z,14.43
2022-12-20T08:50:22.402Z,14.47
2022-12-20T08:52:49.964Z,14.46
2022-12-20T08:55:20.909Z,14.51
2022-12-20T08:57:52.467Z,14.56
2022-12-20T09:00:20.822Z,14.51
2022-12-20T09:02:51.859Z,14.51
2022-12-20T09:05:19.829Z,14.47
2022-12-20T09:07:47.413Z,14.54
2022-12-20T09:10:14.991Z,14.46
2022-12-20T09:12:45.521Z,14.51
2022-12-20T09:15:15.836Z,14.58
2022-12-20T09:17:43.391Z,14.54
2022-12-20T09:20:11.427Z,14.52
2022-12-20T09:25:14.078Z,14.55
2022-12-20T09:27:41.781Z,14.44
2022-12-20T09:30:10.465Z,14.53
2022-12-20T09:32:39.570Z,14.52
2022-12-20T09:35:07.888Z,14.50
2022-12-20T09:37:35.756Z,14.56
2022-12-20T09:40:04.358Z,14.55
2022-12-20T09:42:32.021Z,14.62
2022-12-20T09:45:03.346Z,14.56
2022-12-20T09:47:30.946Z,14.63
2022-12-20T09:49:59.931Z,14.63
2022-12-20T09:52:35.722Z,14.42
2022-12-20T09:55:10.899Z,14.38
2022-12-20T09:57:46.106Z,14.78
2022-12-20T10:00:16.073Z,14.94
2022-12-20T10:02:58.918Z,15.03
2022-12-20T10:05:40.798Z,15.11
2022-12-20T10:08:12.996Z,14.79
2022-12-20T10:10:50.773Z,15.19
2022-12-20T10:13:27.268Z,15.06
2022-12-20T10:15:56.759Z,15.32
2022-12-20T10:18:35.816Z,15.36
2022-12-20T10:21:07.766Z,15.35
2022-12-20T10:23:38.449Z,15.34
2022-12-20T10:26:09.469Z,15.41
2022-12-20T10:28:37.527Z,15.34
2022-12-20T10:31:07.937Z,15.21
2022-12-20T10:33:35.792Z,15.26
2022-12-20T10:36:21.802Z,15.16
2022-12-20T10:38:50.110Z,15.18
2022-12-20T10:41:21.805Z,15.41
2022-12-20T10:43:52.058Z,15.45
2022-12-20T10:46:19.826Z,15.54
2022-12-20T10:48:47.888Z,15.61
2022-12-20T10:51:17.378Z,15.57
2022-12-20T10:53:54.268Z,15.54
2022-12-20T10:56:22.752Z,15.35
2022-12-20T10:58:57.855Z,15.26
2022-12-20T11:01:28.234Z,15.60
2022-12-20T11:03:58.252Z,15.64
2022-12-20T11:06:28.720Z,15.49
2022-12-20T11:09:22.326Z,15.54
2022-12-20T11:11:59.215Z,15.81
2022-12-20T11:14:27.844Z,15.64
2022-12-20T11:17:00.311Z,15.91
2022-12-20T11:19:34.893Z,15.99
2022-12-20T11:22:05.139Z,16.02
2022-12-20T11:24:35.378Z,16.08
2022-12-20T11:27:15.659Z,16.24
2022-12-20T11:30:05.060Z,16.22
2022-12-20T11:32:48.444Z,16.10
2022-12-20T11:35:19.532Z,16.26
2022-12-20T11:37:50.981Z,16.28
2022-12-20T11:40:28.408Z,16.24
2022-12-20T11:43:05.695Z,16.22
2022-12-20T11:45:41.534Z,16.04
2022-12-20T11:48:23.350Z,16.05
2022-12-20T11:50:57.600Z,16.15
2022-12-20T11:53:27.845Z,15.90
2022-12-20T11:55:59.225Z,16.04
2022-12-20T11:58:27.872Z,16.04
2022-12-20T12:00:58.185Z,15.92
2022-12-20T12:03:29.788Z,16.06
2022-12-20T12:05:58.732Z,15.95
2022-12-20T12:08:29.151Z,16.13
2022-12-20T12:11:00.384Z,16.09
2022-12-20T12:13:29.013Z,16.00
2022-12-20T12:16:00.221Z,16.05
2022-12-20T12:18:29.695Z,15.74
2022-12-20T12:21:06.614Z,16.04
2022-12-20T12:23:40.259Z,16.01
2022-12-20T12:26:13.319Z,15.85
2022-12-20T12:28:41.047Z,15.99
2022-12-20T12:31:11.715Z,16.05
2022-12-20T12:33:42.683Z,16.00
2022-12-20T12:36:17.861Z,16.00
2022-12-20T12:39:18.856Z,16.03
2022-12-20T12:42:28.018Z,16.09
2022-12-20T12:44:57.556Z,15.87
2022-12-20T12:47:29.135Z,15.79
2022-12-20T12:49:56.730Z,16.07
2022-12-20T12:52:43.658Z,16.00
2022-12-20T12:55:36.893Z,16.14
2022-12-20T12:58:31.010Z,16.02
2022-12-20T13:01:00.418Z,15.42
2022-12-20T13:03:45.987Z,15.65
2022-12-20T13:06:49.868Z,15.91
2022-12-20T13:09:22.280Z,15.79
2022-12-20T13:11:57.424Z,15.71
2022-12-20T13:14:50.860Z,15.72
2022-12-20T13:17:54.060Z,15.64
2022-12-20T13:20:23.336Z,15.58
2022-12-20T13:23:07.886Z,15.49
2022-12-20T13:25:36.579Z,15.44
2022-12-20T13:28:42.210Z,15.67
2022-12-20T13:31:32.584Z,15.65
2022-12-20T13:34:03.985Z,15.58
2022-12-20T13:36:36.155Z,15.53
2022-12-20T13:39:31.459Z,15.60
2022-12-20T13:42:14.126Z,15.60
2022-12-20T13:44:42.937Z,15.35
2022-12-20T13:47:28.324Z,15.60
2022-12-20T13:50:00.400Z,15.58
2022-12-20T13:52:30.062Z,15.54
2022-12-20T13:55:00.563Z,15.52
2022-12-20T13:57:32.942Z,15.52
2022-12-20T14:00:07.028Z,15.33
2022-12-20T14:02:37.295Z,15.55
2022-12-20T14:05:10.272Z,15.49
2022-12-20T14:07:38.855Z,15.54
2022-12-20T14:10:18.216Z,15.50
2022-12-20T14:12:46.137Z,15.56
2022-12-20T14:15:23.247Z,15.54
2022-12-20T14:17:50.861Z,15.56
2022-12-20T14:20:22.805Z,15.57
2022-12-20T14:23:00.756Z,15.57
2022-12-20T14:25:36.420Z,15.50
2022-12-20T14:28:04.060Z,15.53
2022-12-20T14:30:49.806Z,15.37
2022-12-20T14:33:20.922Z,15.31
2022-12-20T14:35:50.998Z,15.55
2022-12-20T14:38:23.297Z,15.53
2022-12-20T14:40:54.173Z,15.40
2022-12-20T14:43:27.306Z,15.42
2022-12-20T14:46:18.104Z,15.37
2022-12-20T14:48:47.080Z,15.31
2022-12-20T14:51:20.263Z,15.31
2022-12-20T14:53:50.984Z,15.28
2022-12-20T14:56:21.733Z,15.31
2022-12-20T14:59:13.678Z,15.27
2022-12-20T15:01:44.250Z,15.26
2022-12-20T15:04:23.015Z,15.12
2022-12-20T15:06:52.705Z,15.23
2022-12-20T15:09:20.650Z,15.19
2022-12-20T15:11:48.468Z,15.12
2022-12-20T15:14:35.086Z,15.25
2022-12-20T15:17:02.991Z,15.23
2022-12-20T15:19:31.343Z,15.04
2022-12-20T15:22:00.365Z,15.22
2022-12-20T15:24:29.426Z,15.22
2022-12-20T15:26:57.268Z,15.13
2022-12-20T15:29:25.489Z,15.21
2022-12-20T15:31:53.591Z,15.21
2022-12-20T15:34:28.381Z,15.23
2022-12-20T15:36:56.745Z,15.28
2022-12-20T15:39:25.891Z,15.27
2022-12-20T15:41:53.653Z,15.04
2022-12-20T15:44:23.462Z,15.30
2022-12-20T15:46:52.514Z,15.30
2022-12-20T15:49:22.001Z,15.29
2022-12-20T15:51:50.111Z,15.18
2022-12-20T15:54:24.084Z,15.05
2022-12-20T15:56:53.154Z,15.09
2022-12-20T15:59:57.558Z,15.03
2022-12-20T16:02:13.249Z,15.26
2022-12-20T16:04:41.091Z,15.04
2022-12-20T16:07:12.436Z,15.22
2022-12-20T16:09:40.271Z,15.13
2022-12-20T16:12:14.613Z,14.63
2022-12-20T16:14:42.189Z,15.14
2022-12-20T16:17:15.137Z,15.20
2022-12-20T16:19:44.627Z,15.24
2022-12-20T16:22:15.460Z,15.26
2022-12-20T16:24:43.413Z,15.10
2022-12-20T16:27:12.808Z,15.24
2022-12-20T16:29:41.307Z,15.25
2022-12-20T16:32:13.864Z,15.16
2022-12-20T16:34:41.642Z,15.27
2022-12-20T16:37:09.234Z,15.20
2022-12-20T16:39:36.865Z,15.18
2022-12-20T16:42:04.798Z,15.17
2022-12-20T16:44:33.984Z,15.13
2022-12-20T16:47:02.134Z,15.17
2022-12-20T16:49:29.935Z,15.17
2022-12-20T16:51:57.659Z,15.16
2022-12-20T16:54:25.498Z,14.82
2022-12-20T16:56:55.506Z,15.13
2022-12-20T16:59:23.632Z,15.21
2022-12-20T17:01:53.866Z,14.89
2022-12-20T17:04:22.181Z,15.20
2022-12-20T17:06:50.063Z,15.13
2022-12-20T17:12:04.235Z,15.13
2022-12-20T17:14:33.061Z,14.99
2022-12-20T17:17:02.221Z,15.10
2022-12-20T17:19:29.902Z,15.10
2022-12-20T17:24:42.602Z,14.94
2022-12-20T17:32:27.643Z,14.93
2022-12-20T17:34:55.508Z,14.55
2022-12-20T17:37:24.647Z,14.86
2022-12-20T17:39:52.506Z,14.85
2022-12-20T17:42:23.162Z,14.85
2022-12-20T17:44:53.647Z,14.88
2022-12-20T17:47:21.542Z,14.91
2022-12-20T17:49:50.881Z,14.86
2022-12-20T17:52:20.559Z,14.99
2022-12-20T17:54:48.277Z,14.98
2022-12-20T17:57:16.332Z,14.94
2022-12-20T17:59:43.993Z,14.93
2022-12-20T18:02:20.122Z,14.98
2022-12-20T18:04:48.176Z,14.95
2022-12-20T18:07:17.258Z,14.97
2022-12-20T18:09:47.571Z,15.01
2022-12-20T18:12:15.211Z,15.05
2022-12-20T18:14:42.799Z,15.04
2022-12-20T18:17:10.918Z,15.05
2022-12-20T18:19:39.467Z,15.06
2022-12-20T18:22:08.244Z,15.05
2022-12-20T18:24:37.490Z,15.02
2022-12-20T18:27:05.154Z,15.02
2022-12-20T18:29:32.994Z,15.04
2022-12-20T18:32:00.783Z,15.03
2022-12-20T18:34:28.612Z,15.05
2022-12-20T18:36:56.210Z,15.07
2022-12-20T18:39:24.939Z,15.07
2022-12-20T18:41:53.886Z,14.90
2022-12-20T18:44:21.510Z,15.00
2022-12-20T18:46:49.245Z,14.99
2022-12-20T18:49:16.968Z,15.03
2022-12-20T18:51:44.881Z,14.97
2022-12-20T18:54:13.518Z,15.00
2022-12-20T18:56:41.656Z,14.99
2022-12-20T18:59:12.686Z,14.65
2022-12-20T19:01:41.445Z,14.99
2022-12-20T19:04:09.685Z,14.95
2022-12-20T19:06:38.084Z,14.82
2022-12-20T19:09:07.084Z,14.90
2022-12-20T19:11:34.903Z,15.00
2022-12-20T19:14:03.600Z,14.97
2022-12-20T19:16:33.385Z,14.77
2022-12-20T19:19:01.638Z,14.83
2022-12-20T19:21:29.916Z,14.98
2022-12-20T19:23:58.754Z,14.99
2022-12-20T19:26:27.686Z,14.98
2022-12-20T19:28:55.799Z,14.94
2022-12-20T19:31:24.638Z,15.02
2022-12-20T19:33:55.070Z,14.99
2022-12-20T19:36:25.196Z,14.98
2022-12-20T19:38:55.328Z,14.94
2022-12-20T19:41:23.668Z,14.93
2022-12-20T19:43:52.138Z,14.93
2022-12-20T19:46:25.098Z,14.94
2022-12-20T19:48:57.330Z,14.74
2022-12-20T19:51:25.733Z,14.94
2022-12-20T19:53:54.232Z,14.85
2022-12-20T19:56:23.685Z,14.91
2022-12-20T19:58:51.381Z,14.90
2022-12-20T20:01:19.538Z,14.89
2022-12-20T20:03:50.321Z,14.89
2022-12-20T20:06:21.331Z,14.75
2022-12-20T20:08:51.454Z,14.90
2022-12-20T20:11:20.879Z,14.92
2022-12-20T20:13:48.912Z,14.89
2022-12-20T20:16:22.270Z,14.88
2022-12-20T20:18:50.887Z,14.88
2022-12-20T20:21:22.617Z,14.89
2022-12-20T20:23:50.588Z,14.91
2022-12-20T20:26:19.525Z,14.62
2022-12-20T20:28:47.131Z,14.88
2022-12-20T20:31:15.845Z,14.94
2022-12-20T20:33:44.066Z,14.93
2022-12-20T20:36:13.987Z,14.96
2022-12-20T20:38:44.510Z,14.98
2022-12-20T20:41:12.539Z,14.86
2022-12-20T20:43:40.742Z,14.99
2022-12-20T20:46:09.737Z,14.99
2022-12-20T20:48:37.545Z,14.93
2022-12-20T20:51:06.573Z,14.95
2022-12-20T20:53:34.967Z,14.96
2022-12-20T20:56:05.732Z,14.99
2022-12-20T20:58:33.669Z,15.03
2022-12-20T21:01:02.818Z,14.91
2022-12-20T21:03:30.973Z,15.09
2022-12-20T21:08:47.647Z,15.16
2022-12-20T21:11:17.075Z,15.18
2022-12-20T21:13:44.925Z,15.17
2022-12-20T21:16:14.059Z,15.20
2022-12-20T21:18:41.893Z,15.14
2022-12-20T21:21:10.428Z,15.21
2022-12-20T21:23:38.411Z,15.24
2022-12-20T21:26:07.510Z,15.25
2022-12-20T21:28:36.554Z,15.11
2022-12-20T21:31:05.596Z,15.24
2022-12-20T21:33:33.434Z,15.24
2022-12-20T21:36:01.909Z,15.23
2022-12-20T21:38:29.565Z,15.21
2022-12-20T21:41:01.262Z,15.24
2022-12-20T21:43:29.029Z,15.30
2022-12-20T21:45:58.049Z,15.33
2022-12-20T21:48:25.985Z,15.35
2022-12-20T21:51:00.606Z,15.28
2022-12-20T21:53:28.308Z,15.32
2022-12-20T21:55:56.496Z,15.35
2022-12-20T21:58:24.142Z,15.37
2022-12-20T22:00:55.082Z,15.38
2022-12-20T22:03:24.768Z,15.41
2022-12-20T22:05:53.317Z,15.41
2022-12-20T22:08:21.277Z,15.29
2022-12-20T22:10:49.816Z,15.47
2022-12-20T22:13:17.544Z,15.49
2022-12-20T22:15:45.129Z,15.49
2022-12-20T22:18:12.791Z,15.52
2022-12-20T22:20:44.826Z,15.52
2022-12-20T22:23:12.463Z,15.53
2022-12-20T22:25:40.263Z,15.52
2022-12-20T22:28:07.957Z,15.50
2022-12-20T22:30:35.678Z,15.53
2022-12-20T22:33:03.312Z,15.54
2022-12-20T22:35:30.876Z,15.55
2022-12-20T22:37:59.864Z,15.53
2022-12-20T22:40:27.469Z,15.54
2022-12-20T22:42:55.031Z,15.55
2022-12-20T22:45:22.826Z,15.55
2022-12-20T22:47:50.901Z,15.56
2022-12-20T22:50:18.855Z,15.57
2022-12-20T22:52:47.429Z,15.52
2022-12-20T22:55:16.774Z,15.54
2022-12-20T22:57:44.546Z,15.49
2022-12-20T23:00:13.989Z,15.52
2022-12-20T23:02:41.958Z,15.49
2022-12-20T23:05:10.429Z,15.54
2022-12-20T23:07:38.124Z,15.53
2022-12-20T23:10:26.565Z,15.55
2022-12-20T23:13:13.474Z,15.55
2022-12-20T23:15:41.288Z,15.54
2022-12-20T23:18:08.830Z,15.51
2022-12-20T23:20:54.373Z,15.47
2022-12-20T23:23:21.931Z,15.51
2022-12-20T23:25:49.718Z,15.49
2022-12-20T23:30:48.552Z,15.44
2022-12-20T23:33:16.095Z,15.45
2022-12-20T23:35:43.966Z,15.46
2022-12-20T23:38:11.596Z,15.39
2022-12-20T23:40:41.201Z,15.46
2022-12-20T23:43:08.798Z,15.46
2022-12-20T23:45:36.613Z,15.46
2022-12-20T23:48:06.357Z,15.46
2022-12-20T23:50:34.127Z,15.46
2022-12-20T23:53:01.793Z,15.28
2022-12-20T23:55:29.588Z,15.44
2022-12-20T23:57:57.175Z,15.41
